Time;durP1;ratioP1;P1;durP2;ratioP2;P2;SDS_P1;SDS_P2;PMS_P1;PMS_P2;Temp;Humidity;BMP_temperature;BMP_pressure;BME280_temperature;BME280_humidity;BME280_pressure;Samples;Min_cycle;Max_cycle;Signal;HPM_P1;HPM_P2
2020/12/30 00:00:23;;;;;;;12.85;7.88;;;11.20;99.90;;;;;;5052490;28;20028;-77
2020/12/30 00:02:49;;;;;;;14.68;8.18;;;11.10;99.90;;;;;;5052810;28;20473;-77
2020/12/30 00:05:15;;;;;;;36.22;8.38;;;11.10;99.90;;;;;;5052661;28;20032;-77
2020/12/30 00:07:41;;;;;;;21.25;7.95;;;11.10;99.90;;;;;;5051371;28;20029;-77
2020/12/30 00:10:09;;;;;;;11.95;6.75;;;11.20;99.90;;;;;;5052687;28;20029;-77
2020/12/30 00:12:37;;;;;;;12.77;7.65;;;11.30;99.90;;;;;;5051998;28;20435;-77
2020/12/30 00:15:04;;;;;;;13.82;8.15;;;11.30;99.90;;;;;;5051610;28;20029;-77
2020/12/30 00:17:30;;;;;;;10.52;6.25;;;11.30;99.90;;;;;;5051499;28;20423;-77
2020/12/30 00:19:56;;;;;;;14.25;7.28;;;11.30;99.90;;;;;;5051906;28;20024;-77
2020/12/30 00:22:22;;;;;;;11.70;5.95;;;11.30;99.90;;;;;;5050184;28;20036;-78
2020/12/30 00:24:47;;;;;;;8.82;5.70;;;11.30;99.90;;;;;;5051626;28;20361;-77
2020/12/30 00:27:13;;;;;;;9.02;5.22;;;11.30;99.90;;;;;;5051222;28;20734;-77
2020/12/30 00:29:40;;;;;;;6.90;4.38;;;11.40;99.90;;;;;;5051584;28;20469;-77
2020/12/30 00:32:09;;;;;;;8.70;4.57;;;11.30;99.90;;;;;;5052027;28;20375;-77
2020/12/30 00:34:36;;;;;;;10.10;4.63;;;11.30;99.90;;;;;;5052318;28;20051;-77
2020/12/30 00:37:02;;;;;;;10.25;5.28;;;11.30;99.90;;;;;;5052510;28;20025;-76
2020/12/30 00:39:27;;;;;;;15.35;5.60;;;11.30;99.90;;;;;;5052254;28;20104;-77
2020/12/30 00:41:54;;;;;;;7.60;4.70;;;11.30;99.90;;;;;;5052213;28;20528;-77
2020/12/30 00:44:20;;;;;;;10.73;5.03;;;11.30;99.90;;;;;;5050716;28;20524;-77
2020/12/30 00:46:53;;;;;;;7.85;5.07;;;11.30;99.90;;;;;;5052228;28;20060;-77
2020/12/30 00:49:19;;;;;;;8.38;4.47;;;11.30;99.90;;;;;;5052008;28;20032;-77
2020/12/30 00:52:03;;;;;;;10.38;4.65;;;11.30;99.90;;;;;;5050558;28;20025;-76
2020/12/30 00:54:29;;;;;;;6.95;4.40;;;11.20;99.90;;;;;;5051748;28;20103;-77
2020/12/30 00:56:55;;;;;;;8.35;4.05;;;11.20;99.90;;;;;;5052217;28;20128;-76
2020/12/30 00:59:21;;;;;;;7.93;4.03;;;11.20;99.90;;;;;;5052069;28;20021;-76
2020/12/30 01:01:51;;;;;;;5.88;3.83;;;11.20;99.90;;;;;;5051815;28;20029;-76
2020/12/30 01:04:19;;;;;;;12.40;4.43;;;11.20;99.90;;;;;;5052534;28;20029;-77
2020/12/30 01:06:52;;;;;;;11.70;5.03;;;11.20;99.90;;;;;;5052648;28;20028;-77
2020/12/30 01:09:18;;;;;;;10.18;4.30;;;11.20;99.90;;;;;;5052782;28;20373;-77
2020/12/30 01:11:44;;;;;;;7.35;4.18;;;11.20;99.90;;;;;;5052368;28;20053;-77
2020/12/30 01:14:10;;;;;;;8.52;3.38;;;11.20;99.90;;;;;;5052380;28;20486;-77
2020/12/30 01:16:36;;;;;;;7.70;3.90;;;11.20;99.90;;;;;;5052480;28;20013;-77
2020/12/30 01:19:05;;;;;;;6.05;3.42;;;11.20;99.90;;;;;;5054366;28;20059;-78
2020/12/30 01:21:30;;;;;;;11.98;4.68;;;11.20;99.90;;;;;;5055183;28;20028;-78
2020/12/30 01:23:56;;;;;;;8.10;4.10;;;11.20;99.90;;;;;;5056432;28;20041;-77
2020/12/30 01:26:22;;;;;;;12.70;3.63;;;11.10;99.90;;;;;;5056894;28;20089;-78
2020/12/30 01:28:48;;;;;;;10.98;3.75;;;11.10;99.90;;;;;;5055151;28;20543;-78
2020/12/30 01:31:14;;;;;;;5.93;3.40;;;11.10;99.90;;;;;;5055453;28;20120;-78
2020/12/30 01:33:42;;;;;;;7.28;3.53;;;11.10;99.90;;;;;;5056753;28;20031;-78
2020/12/30 01:36:07;;;;;;;8.60;3.83;;;11.10;99.90;;;;;;5056639;28;20036;-78
2020/12/30 01:38:35;;;;;;;9.10;3.80;;;11.10;99.90;;;;;;5056472;28;20021;-78
2020/12/30 01:41:02;;;;;;;6.80;4.50;;;11.10;99.90;;;;;;5056326;28;20035;-78
2020/12/30 01:43:28;;;;;;;10.52;4.63;;;11.10;99.90;;;;;;5056519;28;20021;-78
2020/12/30 01:45:54;;;;;;;8.80;3.75;;;11.00;99.90;;;;;;5056059;28;20525;-77
2020/12/30 01:48:23;;;;;;;10.48;4.88;;;11.10;99.90;;;;;;5054879;28;20039;-78
2020/12/30 01:50:49;;;;;;;15.13;5.63;;;11.10;99.90;;;;;;5056211;28;20021;-78
2020/12/30 01:53:15;;;;;;;6.57;3.45;;;11.10;99.90;;;;;;5056130;28;20108;-77
2020/12/30 01:55:42;;;;;;;5.18;3.42;;;11.10;99.90;;;;;;5055731;28;20108;-77
2020/12/30 01:58:09;;;;;;;11.93;4.15;;;11.10;99.90;;;;;;5054794;28;20099;-76
2020/12/30 02:00:36;;;;;;;8.80;3.90;;;11.10;99.90;;;;;;5053434;28;20029;-76
2020/12/30 02:03:03;;;;;;;11.82;5.63;;;11.10;99.90;;;;;;5054978;28;20093;-77
2020/12/30 02:05:34;;;;;;;9.48;5.13;;;11.10;99.90;;;;;;5054904;28;20029;-76
2020/12/30 02:08:02;;;;;;;10.45;4.13;;;11.10;99.90;;;;;;5054732;28;20032;-77
2020/12/30 02:10:28;;;;;;;9.48;4.57;;;11.10;99.90;;;;;;5054631;28;20029;-77
2020/12/30 02:12:56;;;;;;;14.35;5.93;;;11.00;99.90;;;;;;5053121;28;20167;-76
2020/12/30 02:15:32;;;;;;;11.48;3.92;;;11.00;99.90;;;;;;5054814;28;20464;-77
2020/12/30 02:18:00;;;;;;;10.38;4.85;;;11.00;99.90;;;;;;5053328;28;20491;-77
2020/12/30 02:20:30;;;;;;;14.13;5.35;;;11.00;99.90;;;;;;5053596;28;20023;-77
2020/12/30 02:23:07;;;;;;;27.75;5.07;;;10.90;99.90;;;;;;5053576;28;20052;-77
2020/12/30 02:25:33;;;;;;;8.30;4.20;;;11.00;99.90;;;;;;5054826;28;20055;-77
2020/12/30 02:27:58;;;;;;;9.30;4.30;;;11.00;99.90;;;;;;5055136;28;20124;-77
2020/12/30 02:30:24;;;;;;;12.27;4.13;;;10.90;99.90;;;;;;5054748;28;20143;-77
2020/12/30 02:32:51;;;;;;;11.23;3.90;;;11.00;99.90;;;;;;5053164;28;20114;-77
2020/12/30 02:35:24;;;;;;;9.20;3.97;;;11.00;99.90;;;;;;5053841;28;20543;-77
2020/12/30 02:37:51;;;;;;;10.95;4.35;;;11.00;99.90;;;;;;5053729;28;20025;-77
2020/12/30 02:40:18;;;;;;;12.23;3.95;;;11.00;99.90;;;;;;5053460;28;20138;-77
2020/12/30 02:42:44;;;;;;;28.85;4.70;;;11.00;99.90;;;;;;5054791;28;20032;-77
2020/12/30 02:45:10;;;;;;;10.00;3.80;;;10.90;99.90;;;;;;5055103;28;20020;-78
2020/12/30 02:47:36;;;;;;;23.10;5.93;;;10.90;99.90;;;;;;5053343;28;20025;-77
2020/12/30 02:50:03;;;;;;;10.30;3.60;;;10.90;99.90;;;;;;5054056;28;20391;-76
2020/12/30 02:52:29;;;;;;;9.38;3.80;;;10.90;99.90;;;;;;5054024;28;20435;-77
2020/12/30 02:54:55;;;;;;;11.77;3.80;;;10.90;99.90;;;;;;5054031;28;20063;-77
2020/12/30 02:57:21;;;;;;;18.83;4.72;;;11.00;99.90;;;;;;5054282;28;20070;-77
2020/12/30 02:59:47;;;;;;;12.52;3.88;;;11.00;99.90;;;;;;5054717;28;20025;-77
2020/12/30 03:02:13;;;;;;;13.20;4.50;;;11.00;99.90;;;;;;5054574;28;20033;-77
2020/12/30 03:04:39;;;;;;;11.98;4.13;;;11.00;99.90;;;;;;5054433;28;20086;-77
2020/12/30 03:07:05;;;;;;;7.40;3.47;;;10.90;99.90;;;;;;5054352;28;20036;-77
2020/12/30 03:09:31;;;;;;;9.52;4.13;;;11.00;99.90;;;;;;5054294;28;20021;-77
2020/12/30 03:11:57;;;;;;;8.18;4.00;;;10.90;99.90;;;;;;5054232;28;20079;-77
2020/12/30 03:14:23;;;;;;;9.73;4.00;;;10.90;99.90;;;;;;5054279;28;20469;-77
2020/12/30 03:16:49;;;;;;;8.82;4.40;;;10.90;99.90;;;;;;5054121;28;20021;-77
2020/12/30 03:19:15;;;;;;;13.32;4.55;;;10.90;99.90;;;;;;5053946;28;20025;-76
2020/12/30 03:21:41;;;;;;;13.70;6.05;;;10.90;99.90;;;;;;5053080;28;20546;-76
2020/12/30 03:24:06;;;;;;;11.80;4.80;;;10.90;99.90;;;;;;5052889;28;20385;-76
2020/12/30 03:26:34;;;;;;;7.70;3.95;;;10.90;99.90;;;;;;5053048;28;20051;-76
2020/12/30 03:29:01;;;;;;;9.43;5.38;;;11.00;99.90;;;;;;5053375;28;20350;-76
2020/12/30 03:31:29;;;;;;;9.63;3.75;;;10.90;99.90;;;;;;5053227;28;20032;-76
2020/12/30 03:33:55;;;;;;;7.70;3.80;;;10.90;99.90;;;;;;5052874;28;20020;-76
2020/12/30 03:36:22;;;;;;;9.65;4.40;;;10.90;99.90;;;;;;5053091;28;20021;-76
2020/12/30 03:38:47;;;;;;;11.55;3.58;;;10.90;99.90;;;;;;5053166;28;20029;-76
2020/12/30 03:41:13;;;;;;;9.63;4.13;;;10.90;99.90;;;;;;5052551;28;20817;-76
2020/12/30 03:43:39;;;;;;;9.43;4.20;;;10.90;99.90;;;;;;5052620;28;20029;-76
2020/12/30 03:46:05;;;;;;;9.45;4.93;;;10.90;99.90;;;;;;5052825;28;20029;-76
2020/12/30 03:48:31;;;;;;;10.88;3.90;;;11.00;99.90;;;;;;5052770;28;20021;-76
2020/12/30 03:50:56;;;;;;;13.10;4.60;;;10.90;99.90;;;;;;5052433;28;20025;-77
2020/12/30 03:53:22;;;;;;;11.32;3.95;;;10.90;99.90;;;;;;5052520;28;20826;-76
2020/12/30 03:55:48;;;;;;;9.68;3.40;;;10.90;99.90;;;;;;5052394;28;20083;-76
2020/12/30 03:58:14;;;;;;;9.38;3.60;;;10.90;99.90;;;;;;5052462;28;20132;-76
2020/12/30 04:00:40;;;;;;;11.10;3.67;;;11.00;99.90;;;;;;5052382;28;20032;-77
2020/12/30 04:03:05;;;;;;;9.75;4.20;;;11.00;99.90;;;;;;5052350;28;20025;-76
2020/12/30 04:05:31;;;;;;;11.77;4.78;;;11.00;99.90;;;;;;5051977;28;20037;-76
2020/12/30 04:07:57;;;;;;;10.82;4.65;;;11.00;99.90;;;;;;5052129;28;20052;-76
2020/12/30 04:10:23;;;;;;;8.68;4.10;;;11.00;99.90;;;;;;5052444;28;20436;-76
2020/12/30 04:12:49;;;;;;;13.30;4.95;;;11.00;99.90;;;;;;5051938;28;20021;-76
2020/12/30 04:15:14;;;;;;;12.07;4.70;;;11.10;99.90;;;;;;5052093;28;20025;-76
2020/12/30 04:17:41;;;;;;;13.60;5.13;;;11.00;99.90;;;;;;5051996;28;20415;-76
2020/12/30 04:20:06;;;;;;;20.80;5.68;;;11.10;99.90;;;;;;5050740;28;20055;-76
2020/12/30 04:22:32;;;;;;;12.43;4.90;;;11.00;99.90;;;;;;5051972;28;20056;-76
2020/12/30 04:24:58;;;;;;;12.25;6.47;;;11.10;99.90;;;;;;5052049;28;20036;-77
2020/12/30 04:27:24;;;;;;;14.23;5.55;;;11.10;99.90;;;;;;5051854;28;20021;-76
2020/12/30 04:29:49;;;;;;;13.75;4.88;;;11.10;99.90;;;;;;5052112;28;20029;-76
2020/12/30 04:32:15;;;;;;;8.48;5.00;;;11.10;99.90;;;;;;5052238;28;20136;-76
2020/12/30 04:34:41;;;;;;;12.60;6.28;;;11.10;99.90;;;;;;5052167;28;20480;-76
2020/12/30 04:37:07;;;;;;;12.48;4.80;;;11.10;99.90;;;;;;5052151;28;20481;-76
2020/12/30 04:39:33;;;;;;;9.07;4.75;;;11.00;99.90;;;;;;5051929;28;20031;-76
2020/12/30 04:42:01;;;;;;;10.50;5.32;;;11.00;99.90;;;;;;5052364;28;20466;-76
2020/12/30 04:44:33;;;;;;;12.23;5.32;;;11.00;99.90;;;;;;5052063;28;20388;-76
2020/12/30 04:47:03;;;;;;;13.50;5.18;;;11.00;99.90;;;;;;5051972;28;20033;-77
2020/12/30 04:49:30;;;;;;;11.27;4.97;;;11.00;99.90;;;;;;5052463;28;20039;-77
2020/12/30 04:51:56;;;;;;;11.63;5.30;;;11.00;99.90;;;;;;5051287;28;20590;-77
2020/12/30 04:54:23;;;;;;;14.63;4.97;;;11.00;99.90;;;;;;5052159;28;20029;-76
2020/12/30 04:57:03;;;;;;;11.05;5.10;;;11.00;99.90;;;;;;5052232;28;20389;-77
2020/12/30 04:59:33;;;;;;;14.40;4.87;;;11.00;99.90;;;;;;5052154;28;20901;-77
2020/12/30 05:02:07;;;;;;;9.00;4.90;;;11.00;99.90;;;;;;5052475;28;20028;-77
2020/12/30 05:04:40;;;;;;;13.75;5.50;;;11.00;99.90;;;;;;5052232;28;20411;-77
2020/12/30 05:07:11;;;;;;;13.25;5.40;;;10.90;99.90;;;;;;5052406;28;20029;-77
2020/12/30 05:09:39;;;;;;;14.68;6.05;;;10.90;99.90;;;;;;5052159;28;20059;-77
2020/12/30 05:12:17;;;;;;;12.30;5.25;;;10.80;99.90;;;;;;5052181;28;20472;-77
2020/12/30 05:14:43;;;;;;;10.32;5.15;;;10.90;99.90;;;;;;5051085;28;20468;-77
2020/12/30 05:17:10;;;;;;;8.95;3.83;;;10.90;99.90;;;;;;5052174;28;20025;-78
2020/12/30 05:19:36;;;;;;;11.02;4.90;;;10.90;99.90;;;;;;5052394;28;20021;-78
2020/12/30 05:22:03;;;;;;;12.20;5.75;;;10.90;99.90;;;;;;5052503;28;20110;-77
2020/12/30 05:24:29;;;;;;;8.55;4.70;;;10.90;99.90;;;;;;5051016;28;20186;-78
2020/12/30 05:26:58;;;;;;;16.52;5.57;;;10.90;99.90;;;;;;5052227;28;20104;-78
2020/12/30 05:29:26;;;;;;;11.52;4.95;;;10.90;99.90;;;;;;5052797;28;20025;-78
2020/12/30 05:31:54;;;;;;;12.73;5.20;;;10.90;99.90;;;;;;5052353;28;20349;-77
2020/12/30 05:34:21;;;;;;;11.52;5.03;;;10.90;99.90;;;;;;5052413;28;20013;-78
2020/12/30 05:36:48;;;;;;;14.30;6.47;;;10.90;99.90;;;;;;5052390;28;20469;-77
2020/12/30 05:39:32;;;;;;;13.90;6.35;;;10.90;99.90;;;;;;5052274;28;20027;-77
2020/12/30 05:42:16;;;;;;;8.75;5.32;;;10.90;99.90;;;;;;5052095;28;20388;-77
2020/12/30 05:44:47;;;;;;;9.45;5.32;;;10.90;99.90;;;;;;5051913;28;20025;-77
2020/12/30 05:47:24;;;;;;;11.45;4.70;;;10.90;99.90;;;;;;5052330;28;20028;-78
2020/12/30 05:49:55;;;;;;;10.02;5.20;;;10.90;99.90;;;;;;5052222;28;20023;-77
2020/12/30 05:52:26;;;;;;;11.38;4.97;;;10.90;99.90;;;;;;5051859;28;20026;-77
2020/12/30 05:54:55;;;;;;;;;;;10.90;99.90;;;;;;5052591;28;20021;-77
2020/12/30 05:57:34;;;;;;;12.90;6.07;;;10.90;99.90;;;;;;5050592;28;19911;-78
2020/12/30 06:00:11;;;;;;;12.77;6.35;;;10.90;99.90;;;;;;5052282;28;20753;-77
2020/12/30 06:02:45;;;;;;;10.27;5.68;;;10.90;99.90;;;;;;5052224;28;20040;-77
2020/12/30 06:05:22;;;;;;;10.43;5.35;;;10.90;99.90;;;;;;5055320;28;20029;-78
2020/12/30 06:07:53;;;;;;;14.65;6.88;;;10.90;99.90;;;;;;5054185;28;20033;-77
2020/12/30 06:10:24;;;;;;;21.23;9.80;;;10.80;99.90;;;;;;5055659;28;20025;-77
2020/12/30 06:12:54;;;;;;;14.60;7.60;;;10.80;99.90;;;;;;5055500;28;20087;-77
2020/12/30 06:15:20;;;;;;;11.73;6.65;;;10.80;99.90;;;;;;5055273;28;20020;-77
2020/12/30 06:18:05;;;;;;;18.40;10.20;;;10.80;99.90;;;;;;5055131;28;20017;-77
2020/12/30 06:20:39;;;;;;;10.70;6.80;;;10.80;99.90;;;;;;5055275;28;20032;-77
2020/12/30 06:23:13;;;;;;;10.20;5.82;;;10.80;99.90;;;;;;5055023;28;20556;-77
2020/12/30 06:25:44;;;;;;;11.05;5.60;;;10.70;99.90;;;;;;5055111;28;20029;-77
2020/12/30 06:28:10;;;;;;;11.55;5.90;;;10.70;99.90;;;;;;5054622;28;20029;-77
2020/12/30 06:30:37;;;;;;;10.88;6.55;;;10.70;99.90;;;;;;5054971;28;20099;-77
2020/12/30 06:33:04;;;;;;;11.10;7.22;;;10.70;99.90;;;;;;5054442;28;20545;-77
2020/12/30 06:35:32;;;;;;;16.67;8.02;;;10.70;99.90;;;;;;5053256;28;20483;-77
2020/12/30 06:38:16;;;;;;;16.23;7.65;;;10.60;99.90;;;;;;5054727;28;20048;-77
2020/12/30 06:40:52;;;;;;;14.95;7.32;;;10.60;99.90;;;;;;5054670;28;20100;-77
2020/12/30 06:43:54;;;;;;;13.02;7.05;;;10.60;99.90;;;;;;5053550;28;20171;-77
2020/12/30 06:46:23;;;;;;;12.73;6.15;;;10.60;99.90;;;;;;5054815;28;20029;-77
2020/12/30 06:49:00;;;;;;;15.82;8.05;;;10.60;99.90;;;;;;5053255;28;20040;-76
2020/12/30 06:51:28;;;;;;;16.55;8.05;;;10.60;99.90;;;;;;5054579;28;20025;-77
2020/12/30 06:53:55;;;;;;;17.00;8.55;;;10.60;99.90;;;;;;5054214;28;20083;-77
2020/12/30 06:56:46;;;;;;;16.38;8.57;;;10.50;99.90;;;;;;5054326;28;20036;-77
2020/12/30 06:59:16;;;;;;;17.05;7.65;;;10.60;99.90;;;;;;5054530;28;20078;-78
2020/12/30 07:02:01;;;;;;;19.52;8.45;;;10.50;99.90;;;;;;5054652;28;20021;-78
2020/12/30 07:04:29;;;;;;;17.42;9.80;;;10.50;99.90;;;;;;5053536;28;20086;-78
2020/12/30 07:06:55;;;;;;;31.65;17.20;;;10.60;99.90;;;;;;5054681;28;20029;-78
2020/12/30 07:09:47;;;;;;;41.00;21.13;;;10.60;99.90;;;;;;5054465;28;20473;-77
2020/12/30 07:12:13;;;;;;;42.97;21.90;;;10.60;99.90;;;;;;5066213;28;20495;-77
2020/12/30 07:14:39;;;;;;;32.28;15.82;;;10.60;99.90;;;;;;5054111;28;20099;-77
2020/12/30 07:17:09;;;;;;;14.27;8.40;;;10.60;99.90;;;;;;5054028;28;20407;-78
2020/12/30 07:19:36;;;;;;;19.70;10.15;;;10.70;99.90;;;;;;5054114;28;20017;-77
2020/12/30 07:22:02;;;;;;;27.35;13.07;;;10.70;99.90;;;;;;5053843;28;20031;-77
2020/12/30 07:24:30;;;;;;;27.77;14.65;;;10.70;99.90;;;;;;5053633;28;20053;-77
2020/12/30 07:27:05;;;;;;;27.30;14.35;;;10.80;99.90;;;;;;5053797;28;20438;-77
2020/12/30 07:29:31;;;;;;;47.63;24.30;;;10.80;99.90;;;;;;5052343;28;20388;-77
2020/12/30 07:32:01;;;;;;;29.38;15.82;;;10.90;99.90;;;;;;5052122;28;20035;-77
2020/12/30 07:34:30;;;;;;;25.60;12.52;;;10.90;99.90;;;;;;5053651;28;20017;-76
2020/12/30 07:36:56;;;;;;;20.63;15.10;;;10.90;99.90;;;;;;5053248;28;20083;-77
2020/12/30 07:39:27;;;;;;;46.03;26.55;;;10.90;99.90;;;;;;5053311;28;20025;-77
2020/12/30 07:41:54;;;;;;;59.47;32.47;;;11.00;99.90;;;;;;5053221;28;20096;-77
2020/12/30 07:44:20;;;;;;;46.78;25.92;;;11.00;99.90;;;;;;5052072;28;20864;-77
2020/12/30 07:46:46;;;;;;;30.10;16.67;;;11.00;99.90;;;;;;5052033;28;20032;-77
2020/12/30 07:49:14;;;;;;;26.55;15.75;;;11.10;99.90;;;;;;5051662;28;20024;-77
2020/12/30 07:51:50;;;;;;;21.30;12.82;;;11.10;99.90;;;;;;5053172;28;20060;-77
2020/12/30 07:54:18;;;;;;;20.02;11.57;;;11.20;99.90;;;;;;5052995;28;20029;-77
2020/12/30 07:56:44;;;;;;;22.27;11.82;;;11.20;99.90;;;;;;5052969;28;20041;-77
2020/12/30 07:59:10;;;;;;;18.38;11.20;;;11.20;99.90;;;;;;5052898;28;20067;-77
2020/12/30 08:01:36;;;;;;;20.77;12.50;;;11.20;99.90;;;;;;5052996;28;20025;-77
2020/12/30 08:04:06;;;;;;;18.58;11.38;;;11.30;99.90;;;;;;5052833;28;20104;-77
2020/12/30 08:06:44;;;;;;;21.55;12.02;;;11.30;99.90;;;;;;5052792;28;20116;-77
2020/12/30 08:09:12;;;;;;;18.38;11.32;;;11.30;99.90;;;;;;5053083;28;20796;-77
2020/12/30 08:11:53;;;;;;;16.75;9.55;;;11.30;99.90;;;;;;5051316;28;20033;-77
2020/12/30 08:14:20;;;;;;;20.25;10.25;;;11.30;99.90;;;;;;5052608;28;20048;-77
2020/12/30 08:16:58;;;;;;;18.17;11.30;;;11.30;99.90;;;;;;5052618;28;20096;-77
2020/12/30 08:19:31;;;;;;;16.88;8.57;;;11.20;99.90;;;;;;5051316;28;20087;-77
2020/12/30 08:22:10;;;;;;;14.32;8.45;;;11.20;99.90;;;;;;5051322;28;20392;-77
2020/12/30 08:24:38;;;;;;;15.75;7.97;;;11.20;99.90;;;;;;5052058;28;20048;-76
2020/12/30 08:27:05;;;;;;;13.23;7.57;;;11.20;99.90;;;;;;5051999;28;20056;-77
2020/12/30 08:29:33;;;;;;;27.52;9.95;;;11.20;99.90;;;;;;5052229;28;20021;-77
2020/12/30 08:32:21;;;;;;;17.80;11.85;;;11.20;99.90;;;;;;5051903;28;20032;-76
2020/12/30 08:34:55;;;;;;;21.50;12.65;;;11.30;99.90;;;;;;5052096;28;20060;-77
2020/12/30 08:37:27;;;;;;;16.48;10.30;;;11.30;99.90;;;;;;5052295;28;20039;-77
2020/12/30 08:40:02;;;;;;;184.98;20.67;;;11.30;99.90;;;;;;5051004;28;20036;-76
2020/12/30 08:42:53;;;;;;;18.55;9.98;;;11.40;99.90;;;;;;5051298;28;20029;-75
2020/12/30 08:45:48;;;;;;;25.50;9.27;;;11.40;99.90;;;;;;5051605;28;20029;-78
2020/12/30 08:48:17;;;;;;;19.35;11.38;;;11.40;99.90;;;;;;5023125;28;20035;-78
2020/12/30 08:50:44;;;;;;;67.63;22.13;;;11.40;99.90;;;;;;5052787;28;20025;-79
2020/12/30 08:53:14;;;;;;;228.38;121.03;;;11.50;99.90;;;;;;5052509;28;20061;-79
2020/12/30 08:55:40;;;;;;;30.90;14.98;;;11.50;99.90;;;;;;5051371;28;20536;-81
2020/12/30 08:58:06;;;;;;;22.17;10.93;;;11.50;99.90;;;;;;5051061;28;20442;-79
2020/12/30 09:00:35;;;;;;;25.92;11.32;;;11.50;99.90;;;;;;5046975;28;20024;-78
2020/12/30 09:03:14;;;;;;;34.15;14.23;;;11.70;99.90;;;;;;5051127;28;20029;-77
2020/12/30 09:05:40;;;;;;;27.15;12.38;;;11.70;99.90;;;;;;5051129;28;20024;-77
2020/12/30 09:08:17;;;;;;;820.85;559.28;;;11.60;99.90;;;;;;5051699;28;20040;-76
2020/12/30 09:10:44;;;;;;;112.57;69.95;;;11.90;99.90;;;;;;5050995;28;20021;-76
2020/12/30 09:13:18;;;;;;;16.23;11.10;;;12.30;99.90;;;;;;5049616;28;20021;-76
2020/12/30 09:15:46;;;;;;;20.85;14.82;;;12.00;99.90;;;;;;5050867;28;20029;-76
2020/12/30 09:18:13;;;;;;;24.95;17.20;;;11.90;99.90;;;;;;5049545;28;20021;-76
2020/12/30 09:20:39;;;;;;;26.98;19.00;;;11.70;99.90;;;;;;5050616;28;20021;-76
2020/12/30 09:23:06;;;;;;;26.33;19.23;;;11.70;99.90;;;;;;5050740;28;20128;-76
2020/12/30 09:25:35;;;;;;;30.00;18.50;;;11.70;99.90;;;;;;5051003;28;20126;-77
2020/12/30 09:28:01;;;;;;;45.42;24.20;;;11.60;99.90;;;;;;5050939;28;20025;-77
2020/12/30 09:30:28;;;;;;;53.88;28.23;;;11.70;99.90;;;;;;5050634;28;20021;-76
2020/12/30 09:32:55;;;;;;;53.85;28.83;;;11.60;99.90;;;;;;5050941;28;20076;-77
2020/12/30 09:35:29;;;;;;;44.30;24.08;;;11.60;99.90;;;;;;5049712;28;20040;-76
2020/12/30 09:37:59;;;;;;;54.03;28.60;;;11.70;99.90;;;;;;5050793;28;20445;-76
2020/12/30 09:40:28;;;;;;;40.88;26.33;;;11.70;99.90;;;;;;5054960;28;20013;-77
2020/12/30 09:43:17;;;;;;;30.23;20.02;;;11.70;99.90;;;;;;5055076;28;20571;-77
2020/12/30 09:45:44;;;;;;;59.25;38.72;;;11.70;99.90;;;;;;5053947;28;20116;-77
2020/12/30 09:48:12;;;;;;;40.78;30.77;;;11.70;99.90;;;;;;5050592;28;20029;-77
2020/12/30 09:50:38;;;;;;;36.83;24.40;;;11.60;99.90;;;;;;5054235;28;20036;-76
2020/12/30 09:53:05;;;;;;;41.80;22.13;;;11.50;99.90;;;;;;5054228;28;20490;-75
2020/12/30 09:55:30;;;;;;;43.70;24.08;;;11.50;99.90;;;;;;5054800;28;20468;-76
2020/12/30 09:57:56;;;;;;;40.95;19.75;;;11.50;99.90;;;;;;5053006;28;20017;-76
2020/12/30 10:00:22;;;;;;;37.58;21.75;;;11.50;99.90;;;;;;5053981;28;20024;-76
2020/12/30 10:02:48;;;;;;;99.82;57.42;;;11.50;99.90;;;;;;5054057;28;20538;-77
2020/12/30 10:05:14;;;;;;;56.50;35.20;;;12.00;99.90;;;;;;5054080;28;20029;-76
2020/12/30 10:07:40;;;;;;;58.40;34.03;;;12.00;99.90;;;;;;5054409;28;20420;-76
2020/12/30 10:10:06;;;;;;;53.50;32.30;;;11.90;99.90;;;;;;5053921;28;20029;-76
2020/12/30 10:12:34;;;;;;;69.50;26.13;;;12.10;99.90;;;;;;5052789;28;20025;-75
2020/12/30 10:14:59;;;;;;;72.82;44.97;;;11.90;99.90;;;;;;5051588;28;20017;-75
2020/12/30 10:17:25;;;;;;;54.15;37.17;;;11.90;99.90;;;;;;5052591;28;20376;-75
2020/12/30 10:19:51;;;;;;;62.78;39.17;;;11.80;99.90;;;;;;5052882;28;20017;-76
2020/12/30 10:22:17;;;;;;;257.50;157.45;;;11.80;99.90;;;;;;5052812;28;20104;-75
2020/12/30 10:24:48;;;;;;;129.27;76.32;;;11.80;99.90;;;;;;5052704;28;20049;-75
2020/12/30 10:27:16;;;;;;;;;;;11.80;99.90;;;;;;5051094;28;20106;-75
2020/12/30 10:29:42;;;;;;;108.45;59.25;;;11.80;99.90;;;;;;5052408;28;20383;-76
2020/12/30 10:32:08;;;;;;;146.93;69.78;;;11.70;99.90;;;;;;5049197;28;20063;-77
2020/12/30 10:34:35;;;;;;;122.30;60.60;;;11.80;99.90;;;;;;5050750;28;20049;-77
2020/12/30 10:37:05;;;;;;;345.88;147.35;;;11.70;99.90;;;;;;5054550;28;20028;-77
2020/12/30 10:39:31;;;;;;;101.88;52.58;;;11.70;99.90;;;;;;5054628;28;20059;-77
2020/12/30 10:41:58;;;;;;;264.10;117.70;;;11.60;99.90;;;;;;5054236;28;20024;-77
2020/12/30 10:44:24;;;;;;;210.48;94.60;;;11.60;99.90;;;;;;5053895;28;20036;-77
2020/12/30 10:46:51;;;;;;;70.47;38.53;;;11.60;99.90;;;;;;5053618;28;20036;-77
2020/12/30 10:49:16;;;;;;;70.50;36.47;;;11.60;99.90;;;;;;5054413;28;20021;-78
2020/12/30 10:51:50;;;;;;;87.00;53.22;;;11.50;99.90;;;;;;5052291;28;20029;-78
2020/12/30 10:54:16;;;;;;;56.55;32.92;;;11.50;99.90;;;;;;5054761;28;20025;-77
2020/12/30 10:56:50;;;;;;;50.30;27.52;;;11.50;99.90;;;;;;5054897;28;20570;-78
2020/12/30 10:59:16;;;;;;;47.30;28.60;;;11.50;99.90;;;;;;5055152;28;20047;-79
2020/12/30 11:01:42;;;;;;;54.88;34.97;;;11.40;99.90;;;;;;5055092;28;20031;-79
2020/12/30 11:04:09;;;;;;;75.80;38.90;;;11.40;99.90;;;;;;5054038;28;20503;-77
2020/12/30 11:06:35;;;;;;;40.65;24.45;;;11.40;99.90;;;;;;5055144;28;20028;-79
2020/12/30 11:09:01;;;;;;;42.95;26.08;;;11.50;99.90;;;;;;5054003;28;20388;-79
2020/12/30 11:11:27;;;;;;;76.15;27.67;;;11.50;99.90;;;;;;5054997;28;20025;-78
2020/12/30 11:13:52;;;;;;;42.45;28.65;;;11.50;99.90;;;;;;5055082;28;20021;-78
2020/12/30 11:16:18;;;;;;;46.70;29.95;;;11.50;99.90;;;;;;5053586;28;20039;-78
2020/12/30 11:18:44;;;;;;;203.30;113.10;;;11.50;99.90;;;;;;5054566;28;20021;-78
2020/12/30 11:21:10;;;;;;;395.67;266.35;;;11.50;99.90;;;;;;5054842;28;20044;-78
2020/12/30 11:23:36;;;;;;;116.72;70.85;;;11.50;99.90;;;;;;5054731;28;20488;-78
2020/12/30 11:26:02;;;;;;;103.25;61.40;;;11.50;99.90;;;;;;5053767;28;20086;-78
2020/12/30 11:28:28;;;;;;;155.98;79.40;;;11.50;99.90;;;;;;5054789;28;20388;-78
2020/12/30 11:30:54;;;;;;;140.10;76.72;;;11.50;99.90;;;;;;5054551;28;20369;-76
2020/12/30 11:33:20;;;;;;;151.10;80.07;;;11.50;99.90;;;;;;5052103;28;20070;-77
2020/12/30 11:35:46;;;;;;;130.70;70.72;;;11.50;99.90;;;;;;5069067;28;20396;-77
2020/12/30 11:38:11;;;;;;;104.15;55.70;;;11.60;99.90;;;;;;5085619;28;20063;-77
2020/12/30 11:40:40;;;;;;;58.50;36.03;;;11.60;99.90;;;;;;5053983;28;20021;-77
2020/12/30 11:43:07;;;;;;;66.88;41.42;;;11.60;99.90;;;;;;5054310;28;20376;-78
2020/12/30 11:45:33;;;;;;;80.88;50.90;;;11.50;99.90;;;;;;5086652;28;20036;-77
2020/12/30 11:48:00;;;;;;;47.53;30.85;;;11.60;99.90;;;;;;5054141;28;20017;-78
2020/12/30 11:50:26;;;;;;;39.70;25.88;;;11.60;99.90;;;;;;5054288;28;20384;-78
2020/12/30 11:52:52;;;;;;;34.53;23.80;;;11.60;99.90;;;;;;5054010;28;20025;-80
2020/12/30 11:55:18;;;;;;;48.20;28.30;;;11.60;99.90;;;;;;5054152;28;20039;-78
2020/12/30 11:57:44;;;;;;;63.88;34.20;;;11.60;99.90;;;;;;5054127;28;20025;-79
2020/12/30 12:00:10;;;;;;;64.07;35.17;;;11.60;99.90;;;;;;5052767;28;20029;-79
2020/12/30 12:02:36;;;;;;;61.45;34.90;;;11.60;99.90;;;;;;5052198;28;20025;-79
2020/12/30 12:05:04;;;;;;;64.93;38.58;;;11.60;99.90;;;;;;5053569;28;20039;-78
2020/12/30 12:07:30;;;;;;;56.15;33.35;;;11.60;99.90;;;;;;5053507;28;20476;-78
2020/12/30 12:09:59;;;;;;;170.82;93.18;;;11.70;99.90;;;;;;5053024;28;20040;-78
2020/12/30 12:12:25;;;;;;;118.32;63.47;;;12.00;99.90;;;;;;5053259;28;20024;-79
2020/12/30 12:14:51;;;;;;;82.07;49.33;;;11.90;99.90;;;;;;5052064;28;20029;-79
2020/12/30 12:17:16;;;;;;;72.75;43.85;;;11.90;99.90;;;;;;5053276;28;20025;-78
2020/12/30 12:19:42;;;;;;;64.68;40.28;;;11.90;99.90;;;;;;5053394;28;20028;-78
2020/12/30 12:22:08;;;;;;;39.22;25.60;;;11.90;99.90;;;;;;5052031;28;20115;-78
2020/12/30 12:24:34;;;;;;;33.75;20.60;;;11.80;99.90;;;;;;5052776;28;20132;-78
2020/12/30 12:27:00;;;;;;;33.45;21.42;;;11.80;99.90;;;;;;5053361;28;20037;-79
2020/12/30 12:29:35;;;;;;;40.53;25.52;;;11.80;99.90;;;;;;5053643;28;20025;-79
2020/12/30 12:32:09;;;;;;;40.05;24.58;;;11.90;99.90;;;;;;5053638;28;20033;-79
2020/12/30 12:34:36;;;;;;;49.85;26.23;;;11.90;99.90;;;;;;5052782;28;20053;-79
2020/12/30 12:37:05;;;;;;;35.50;21.75;;;11.90;99.90;;;;;;5050554;28;20024;-76
2020/12/30 12:39:32;;;;;;;45.80;30.70;;;11.90;99.90;;;;;;5053315;28;20017;-78